PWSweather.com
Personal Weather Stations
Station Observations
IBAVARIA50
Munich, PlieningDE 85652

MunichPlieningDE 85652

Lat: 48.19916153, Lon: 11.79794312

Elevation: 504

Station Type: Davis Vantage Pro2

http://wetterstation-pliening.info

High Low Average
Temperature 74.9°F23.8°C 50.8°F10.4°C 63.5°F17.5°C
Dew Point 49.2°F9.6°C 39.8°F4.3°C 44.1°F6.7°C
Winds 16.0 mph 25.7 kmh Calm Calm 5.0 mph ENE8.0 kmh ENE
Wind Gusts 20.0 mph32.2 kmh 2.0 mph3.2 kmh 10.0 mph16.1 kmh
Humidity 71% 29% 52%
Pressure 29.88 in1011.9 mb 29.68 in1005.1 mb -
Precipitation 0.00 in0.0 mm - -
Hour Temp Dew Point Humidity Winds Wind Gusts Pressure Precip Precip Rate Daily Precip Total
12:00 AM 57.6°F14.2°C 44.6°F7.0°C 62% Calm Calm 4.0 mph6.4 kmh 29.88 in1011.9 mb 0.00 in0.0 mm 0.00 in0.0 mm 0.00 in0.0 mm
12:05 AM 57.5°F14.2°C 44.5°F6.9°C 62% 1.0 mph NE1.6 kmh NE 4.0 mph6.4 kmh 29.88 in1011.9 mb 0.00 in0.0 mm 0.00 in0.0 mm 0.00 in0.0 mm
12:10 AM 57.5°F14.2°C 44.5°F6.9°C 62% 3.0 mph NE4.8 kmh NE 4.0 mph6.4 kmh 29.88 in1011.9 mb 0.00 in0.0 mm 0.00 in0.0 mm 0.00 in0.0 mm
12:15 AM 57.4°F14.1°C 44.4°F6.9°C 62% 2.0 mph NE3.2 kmh NE 3.0 mph4.8 kmh 29.88 in1011.9 mb 0.00 in0.0 mm 0.00 in0.0 mm 0.00 in0.0 mm
12:20 AM 57.3°F14.1°C 44.3°F6.8°C 62% 3.0 mph NE4.8 kmh NE 4.0 mph6.4 kmh 29.88 in1011.9 mb 0.00 in0.0 mm 0.00 in0.0 mm 0.00 in0.0 mm
12:25 AM 57.2°F14.0°C 44.2°F6.8°C 62% 2.0 mph NNE3.2 kmh NNE 5.0 mph8.0 kmh 29.88 in1011.9 mb 0.00 in0.0 mm 0.00 in0.0 mm 0.00 in0.0 mm
12:30 AM 56.9°F13.8°C 44.0°F6.7°C 62% 2.0 mph NNE3.2 kmh NNE 4.0 mph6.4 kmh 29.88 in1011.9 mb 0.00 in0.0 mm 0.00 in0.0 mm 0.00 in0.0 mm
12:35 AM 56.6°F13.7°C 44.1°F6.7°C 63% 3.0 mph NE4.8 kmh NE 6.0 mph9.7 kmh 29.87 in1011.5 mb 0.00 in0.0 mm 0.00 in0.0 mm 0.00 in0.0 mm
12:40 AM 56.0°F13.3°C 43.9°F6.6°C 64% 4.0 mph NE6.4 kmh NE 7.0 mph11.3 kmh 29.88 in1011.9 mb 0.00 in0.0 mm 0.00 in0.0 mm 0.00 in0.0 mm
12:45 AM 55.5°F13.1°C 43.9°F6.6°C 65% 3.0 mph NNE4.8 kmh NNE 4.0 mph6.4 kmh 29.88 in1011.9 mb 0.00 in0.0 mm 0.00 in0.0 mm 0.00 in0.0 mm
12:50 AM 55.1°F12.8°C 43.9°F6.6°C 66% 4.0 mph NNE6.4 kmh NNE 5.0 mph8.0 kmh 29.88 in1011.9 mb 0.00 in0.0 mm 0.00 in0.0 mm 0.00 in0.0 mm
12:55 AM 55.2°F12.9°C 43.6°F6.4°C 65% 2.0 mph NE3.2 kmh NE 5.0 mph8.0 kmh 29.88 in1011.9 mb 0.00 in0.0 mm 0.00 in0.0 mm 0.00 in0.0 mm
01:00 AM 55.1°F12.8°C 43.5°F6.4°C 65% 2.0 mph NE3.2 kmh NE 4.0 mph6.4 kmh 29.87 in1011.5 mb 0.00 in0.0 mm 0.00 in0.0 mm 0.00 in0.0 mm
01:05 AM 55.1°F12.8°C 43.5°F6.4°C 65% 1.0 mph NE1.6 kmh NE 3.0 mph4.8 kmh 29.87 in1011.5 mb 0.00 in0.0 mm 0.00 in0.0 mm 0.00 in0.0 mm
01:10 AM 54.8°F12.7°C 43.2°F6.2°C 65% 3.0 mph NNE4.8 kmh NNE 4.0 mph6.4 kmh 29.87 in1011.5 mb 0.00 in0.0 mm 0.00 in0.0 mm 0.00 in0.0 mm
01:15 AM 54.8°F12.7°C 43.2°F6.2°C 65% 2.0 mph NE3.2 kmh NE 4.0 mph6.4 kmh 29.87 in1011.5 mb 0.00 in0.0 mm 0.00 in0.0 mm 0.00 in0.0 mm
01:20 AM 54.8°F12.7°C 43.2°F6.2°C 65% 1.0 mph NE1.6 kmh NE 3.0 mph4.8 kmh 29.87 in1011.5 mb 0.00 in0.0 mm 0.00 in0.0 mm 0.00 in0.0 mm
01:25 AM 54.5°F12.5°C 42.9°F6.1°C 65% 1.0 mph NE1.6 kmh NE 3.0 mph4.8 kmh 29.87 in1011.5 mb 0.00 in0.0 mm 0.00 in0.0 mm 0.00 in0.0 mm
01:30 AM 54.3°F12.4°C 43.1°F6.2°C 66% 2.0 mph NE3.2 kmh NE 3.0 mph4.8 kmh 29.86 in1011.2 mb 0.00 in0.0 mm 0.00 in0.0 mm 0.00 in0.0 mm
01:35 AM 54.0°F12.2°C 42.8°F6.0°C 66% 3.0 mph NE4.8 kmh NE 5.0 mph8.0 kmh 29.86 in1011.2 mb 0.00 in0.0 mm 0.00 in0.0 mm 0.00 in0.0 mm
01:40 AM 53.7°F12.1°C 43.0°F6.1°C 67% 1.0 mph NE1.6 kmh NE 3.0 mph4.8 kmh 29.86 in1011.2 mb 0.00 in0.0 mm 0.00 in0.0 mm 0.00 in0.0 mm
01:45 AM 53.6°F12.0°C 42.9°F6.1°C 67% 2.0 mph NE3.2 kmh NE 3.0 mph4.8 kmh 29.86 in1011.2 mb 0.00 in0.0 mm 0.00 in0.0 mm 0.00 in0.0 mm
01:50 AM 53.3°F11.8°C 43.0°F6.1°C 68% 2.0 mph NE3.2 kmh NE 3.0 mph4.8 kmh 29.86 in1011.2 mb 0.00 in0.0 mm 0.00 in0.0 mm 0.00 in0.0 mm
01:55 AM 52.8°F11.6°C 42.5°F5.8°C 68% 2.0 mph NE3.2 kmh NE 3.0 mph4.8 kmh 29.86 in1011.2 mb 0.00 in0.0 mm 0.00 in0.0 mm 0.00 in0.0 mm
02:00 AM 52.6°F11.4°C 42.7°F5.9°C 69% 2.0 mph NE3.2 kmh NE 3.0 mph4.8 kmh 29.86 in1011.2 mb 0.00 in0.0 mm 0.00 in0.0 mm 0.00 in0.0 mm
02:05 AM 52.4°F11.3°C 42.1°F5.6°C 68% 2.0 mph NE3.2 kmh NE 4.0 mph6.4 kmh 29.85 in1010.8 mb 0.00 in0.0 mm 0.00 in0.0 mm 0.00 in0.0 mm
02:10 AM 52.4°F11.3°C 42.1°F5.6°C 68% 4.0 mph NE6.4 kmh NE 5.0 mph8.0 kmh 29.85 in1010.8 mb 0.00 in0.0 mm 0.00 in0.0 mm 0.00 in0.0 mm
02:15 AM 52.4°F11.3°C 42.1°F5.6°C 68% 4.0 mph NNE6.4 kmh NNE 5.0 mph8.0 kmh 29.85 in1010.8 mb 0.00 in0.0 mm 0.00 in0.0 mm 0.00 in0.0 mm
02:20 AM 52.8°F11.6°C 42.1°F5.6°C 67% 4.0 mph ENE6.4 kmh ENE 6.0 mph9.7 kmh 29.85 in1010.8 mb 0.00 in0.0 mm 0.00 in0.0 mm 0.00 in0.0 mm
02:25 AM 53.0°F11.7°C 42.3°F5.7°C 67% 5.0 mph NNE8.0 kmh NNE 7.0 mph11.3 kmh 29.85 in1010.8 mb 0.00 in0.0 mm 0.00 in0.0 mm 0.00 in0.0 mm
02:30 AM 53.1°F11.7°C 42.4°F5.8°C 67% 6.0 mph NNE9.7 kmh NNE 9.0 mph14.5 kmh 29.85 in1010.8 mb 0.00 in0.0 mm 0.00 in0.0 mm 0.00 in0.0 mm
02:35 AM 53.0°F11.7°C 42.3°F5.7°C 67% 4.0 mph NE6.4 kmh NE 8.0 mph12.9 kmh 29.85 in1010.8 mb 0.00 in0.0 mm 0.00 in0.0 mm 0.00 in0.0 mm
02:40 AM 52.7°F11.5°C 42.4°F5.8°C 68% 5.0 mph NE8.0 kmh NE 6.0 mph9.7 kmh 29.85 in1010.8 mb 0.00 in0.0 mm 0.00 in0.0 mm 0.00 in0.0 mm
02:45 AM 52.3°F11.3°C 42.4°F5.8°C 69% 3.0 mph NE4.8 kmh NE 7.0 mph11.3 kmh 29.85 in1010.8 mb 0.00 in0.0 mm 0.00 in0.0 mm 0.00 in0.0 mm
02:50 AM 51.9°F11.1°C 42.4°F5.8°C 70% 5.0 mph NNE8.0 kmh NNE 6.0 mph9.7 kmh 29.85 in1010.8 mb 0.00 in0.0 mm 0.00 in0.0 mm 0.00 in0.0 mm
02:55 AM 51.7°F10.9°C 42.2°F5.7°C 70% 5.0 mph ENE8.0 kmh ENE 6.0 mph9.7 kmh 29.85 in1010.8 mb 0.00 in0.0 mm 0.00 in0.0 mm 0.00 in0.0 mm
03:00 AM 51.8°F11.0°C 42.3°F5.7°C 70% 4.0 mph NE6.4 kmh NE 7.0 mph11.3 kmh 29.84 in1010.5 mb 0.00 in0.0 mm 0.00 in0.0 mm 0.00 in0.0 mm
03:05 AM 51.9°F11.1°C 42.0°F5.6°C 69% 4.0 mph NE6.4 kmh NE 6.0 mph9.7 kmh 29.84 in1010.5 mb 0.00 in0.0 mm 0.00 in0.0 mm 0.00 in0.0 mm
03:10 AM 51.9°F11.1°C 42.0°F5.6°C 69% 4.0 mph NE6.4 kmh NE 6.0 mph9.7 kmh 29.84 in1010.5 mb 0.00 in0.0 mm 0.00 in0.0 mm 0.00 in0.0 mm
03:15 AM 51.9°F11.1°C 42.0°F5.6°C 69% 3.0 mph NE4.8 kmh NE 6.0 mph9.7 kmh 29.84 in1010.5 mb 0.00 in0.0 mm 0.00 in0.0 mm 0.00 in0.0 mm
03:20 AM 51.9°F11.1°C 42.0°F5.6°C 69% 3.0 mph NE4.8 kmh NE 6.0 mph9.7 kmh 29.84 in1010.5 mb 0.00 in0.0 mm 0.00 in0.0 mm 0.00 in0.0 mm
03:25 AM 51.8°F11.0°C 42.3°F5.7°C 70% 1.0 mph NE1.6 kmh NE 5.0 mph8.0 kmh 29.84 in1010.5 mb 0.00 in0.0 mm 0.00 in0.0 mm 0.00 in0.0 mm
03:30 AM 51.6°F10.9°C 42.1°F5.6°C 70% 1.0 mph NE1.6 kmh NE 3.0 mph4.8 kmh 29.84 in1010.5 mb 0.00 in0.0 mm 0.00 in0.0 mm 0.00 in0.0 mm
03:35 AM 51.6°F10.9°C 42.5°F5.8°C 71% 2.0 mph E3.2 kmh E 6.0 mph9.7 kmh 29.84 in1010.5 mb 0.00 in0.0 mm 0.00 in0.0 mm 0.00 in0.0 mm
03:40 AM 51.7°F10.9°C 42.2°F5.7°C 70% 3.0 mph E4.8 kmh E 5.0 mph8.0 kmh 29.84 in1010.5 mb 0.00 in0.0 mm 0.00 in0.0 mm 0.00 in0.0 mm
03:45 AM 51.9°F11.1°C 42.0°F5.6°C 69% 2.0 mph E3.2 kmh E 5.0 mph8.0 kmh 29.84 in1010.5 mb 0.00 in0.0 mm 0.00 in0.0 mm 0.00 in0.0 mm
03:50 AM 52.1°F11.2°C 42.6°F5.9°C 70% 2.0 mph ENE3.2 kmh ENE 6.0 mph9.7 kmh 29.84 in1010.5 mb 0.00 in0.0 mm 0.00 in0.0 mm 0.00 in0.0 mm
03:55 AM 52.1°F11.2°C 42.2°F5.7°C 69% 4.0 mph NE6.4 kmh NE 6.0 mph9.7 kmh 29.84 in1010.5 mb 0.00 in0.0 mm 0.00 in0.0 mm 0.00 in0.0 mm
04:00 AM 52.2°F11.2°C 42.3°F5.7°C 69% 2.0 mph NE3.2 kmh NE 4.0 mph6.4 kmh 29.84 in1010.5 mb 0.00 in0.0 mm 0.00 in0.0 mm 0.00 in0.0 mm
04:05 AM 52.2°F11.2°C 42.3°F5.7°C 69% 1.0 mph ENE1.6 kmh ENE 5.0 mph8.0 kmh 29.84 in1010.5 mb 0.00 in0.0 mm 0.00 in0.0 mm 0.00 in0.0 mm
04:10 AM 52.2°F11.2°C 42.3°F5.7°C 69% 2.0 mph ENE3.2 kmh ENE 3.0 mph4.8 kmh 29.84 in1010.5 mb 0.00 in0.0 mm 0.00 in0.0 mm 0.00 in0.0 mm
04:15 AM 52.0°F11.1°C 42.1°F5.6°C 69% 1.0 mph E1.6 kmh E 4.0 mph6.4 kmh 29.84 in1010.5 mb 0.00 in0.0 mm 0.00 in0.0 mm 0.00 in0.0 mm
04:20 AM 51.9°F11.1°C 42.0°F5.6°C 69% Calm Calm 3.0 mph4.8 kmh 29.84 in1010.5 mb 0.00 in0.0 mm 0.00 in0.0 mm 0.00 in0.0 mm
04:25 AM 51.8°F11.0°C 42.3°F5.7°C 70% 1.0 mph E1.6 kmh E 3.0 mph4.8 kmh 29.84 in1010.5 mb 0.00 in0.0 mm 0.00 in0.0 mm 0.00 in0.0 mm
04:30 AM 51.7°F10.9°C 42.2°F5.7°C 70% 2.0 mph E3.2 kmh E 4.0 mph6.4 kmh 29.84 in1010.5 mb 0.00 in0.0 mm 0.00 in0.0 mm 0.00 in0.0 mm
04:35 AM 51.9°F11.1°C 42.0°F5.6°C 69% 3.0 mph NE4.8 kmh NE 5.0 mph8.0 kmh 29.84 in1010.5 mb 0.00 in0.0 mm 0.00 in0.0 mm 0.00 in0.0 mm
04:40 AM 51.9°F11.1°C 42.0°F5.6°C 69% 3.0 mph E4.8 kmh E 6.0 mph9.7 kmh 29.84 in1010.5 mb 0.00 in0.0 mm 0.00 in0.0 mm 0.00 in0.0 mm
04:45 AM 51.7°F10.9°C 42.2°F5.7°C 70% 2.0 mph NE3.2 kmh NE 5.0 mph8.0 kmh 29.84 in1010.5 mb 0.00 in0.0 mm 0.00 in0.0 mm 0.00 in0.0 mm
04:50 AM 51.6°F10.9°C 42.1°F5.6°C 70% 2.0 mph NE3.2 kmh NE 5.0 mph8.0 kmh 29.84 in1010.5 mb 0.00 in0.0 mm 0.00 in0.0 mm 0.00 in0.0 mm
04:55 AM 51.5°F10.8°C 42.0°F5.6°C 70% 2.0 mph NE3.2 kmh NE 4.0 mph6.4 kmh 29.84 in1010.5 mb 0.00 in0.0 mm 0.00 in0.0 mm 0.00 in0.0 mm
05:00 AM 51.4°F10.8°C 41.9°F5.5°C 70% 2.0 mph NE3.2 kmh NE 4.0 mph6.4 kmh 29.84 in1010.5 mb 0.00 in0.0 mm 0.00 in0.0 mm 0.00 in0.0 mm
05:05 AM 51.3°F10.7°C 42.2°F5.7°C 71% 2.0 mph NE3.2 kmh NE 4.0 mph6.4 kmh 29.84 in1010.5 mb 0.00 in0.0 mm 0.00 in0.0 mm 0.00 in0.0 mm
05:10 AM 51.2°F10.7°C 41.7°F5.4°C 70% 1.0 mph NE1.6 kmh NE 5.0 mph8.0 kmh 29.84 in1010.5 mb 0.00 in0.0 mm 0.00 in0.0 mm 0.00 in0.0 mm
05:15 AM 50.9°F10.5°C 41.8°F5.4°C 71% 2.0 mph NE3.2 kmh NE 5.0 mph8.0 kmh 29.84 in1010.5 mb 0.00 in0.0 mm 0.00 in0.0 mm 0.00 in0.0 mm
05:20 AM 50.8°F10.4°C 41.7°F5.4°C 71% 2.0 mph NE3.2 kmh NE 5.0 mph8.0 kmh 29.84 in1010.5 mb 0.00 in0.0 mm 0.00 in0.0 mm 0.00 in0.0 mm
05:25 AM 50.8°F10.4°C 41.7°F5.4°C 71% 4.0 mph NE6.4 kmh NE 4.0 mph6.4 kmh 29.84 in1010.5 mb 0.00 in0.0 mm 0.00 in0.0 mm 0.00 in0.0 mm
05:30 AM 51.0°F10.6°C 41.5°F5.3°C 70% 4.0 mph ENE6.4 kmh ENE 5.0 mph8.0 kmh 29.84 in1010.5 mb 0.00 in0.0 mm 0.00 in0.0 mm 0.00 in0.0 mm
05:35 AM 51.3°F10.7°C 41.8°F5.4°C 70% 3.0 mph NE4.8 kmh NE 4.0 mph6.4 kmh 29.84 in1010.5 mb 0.00 in0.0 mm 0.00 in0.0 mm 0.00 in0.0 mm
05:40 AM 51.4°F10.8°C 41.9°F5.5°C 70% 4.0 mph NE6.4 kmh NE 5.0 mph8.0 kmh 29.84 in1010.5 mb 0.00 in0.0 mm 0.00 in0.0 mm 0.00 in0.0 mm
05:45 AM 51.3°F10.7°C 41.8°F5.4°C 70% 3.0 mph NE4.8 kmh NE 6.0 mph9.7 kmh 29.84 in1010.5 mb 0.00 in0.0 mm 0.00 in0.0 mm 0.00 in0.0 mm
05:50 AM 51.3°F10.7°C 41.8°F5.4°C 70% 1.0 mph NE1.6 kmh NE 4.0 mph6.4 kmh 29.84 in1010.5 mb 0.00 in0.0 mm 0.00 in0.0 mm 0.00 in0.0 mm
05:55 AM 51.5°F10.8°C 42.4°F5.8°C 71% 2.0 mph NE3.2 kmh NE 5.0 mph8.0 kmh 29.84 in1010.5 mb 0.00 in0.0 mm 0.00 in0.0 mm 0.00 in0.0 mm
06:00 AM 51.9°F11.1°C 42.4°F5.8°C 70% 3.0 mph NE4.8 kmh NE 6.0 mph9.7 kmh 29.83 in1010.2 mb 0.00 in0.0 mm 0.00 in0.0 mm 0.00 in0.0 mm
06:05 AM 52.5°F11.4°C 42.6°F5.9°C 69% 1.0 mph E1.6 kmh E 4.0 mph6.4 kmh 29.84 in1010.5 mb 0.00 in0.0 mm 0.00 in0.0 mm 0.00 in0.0 mm
06:10 AM 53.1°F11.7°C 42.4°F5.8°C 67% 4.0 mph NE6.4 kmh NE 4.0 mph6.4 kmh 29.84 in1010.5 mb 0.00 in0.0 mm 0.00 in0.0 mm 0.00 in0.0 mm
06:15 AM 53.4°F11.9°C 42.7°F5.9°C 67% 5.0 mph NE8.0 kmh NE 5.0 mph8.0 kmh 29.84 in1010.5 mb 0.00 in0.0 mm 0.00 in0.0 mm 0.00 in0.0 mm
06:20 AM 53.9°F12.2°C 42.8°F6.0°C 66% 4.0 mph ENE6.4 kmh ENE 4.0 mph6.4 kmh 29.84 in1010.5 mb 0.00 in0.0 mm 0.00 in0.0 mm 0.00 in0.0 mm
06:25 AM 54.8°F12.7°C 43.2°F6.2°C 65% 3.0 mph ENE4.8 kmh ENE 5.0 mph8.0 kmh 29.84 in1010.5 mb 0.00 in0.0 mm 0.00 in0.0 mm 0.00 in0.0 mm
06:30 AM 55.4°F13.0°C 43.4°F6.3°C 64% 2.0 mph NE3.2 kmh NE 4.0 mph6.4 kmh 29.84 in1010.5 mb 0.00 in0.0 mm 0.00 in0.0 mm 0.00 in0.0 mm
06:35 AM 55.8°F13.2°C 43.3°F6.3°C 63% 3.0 mph N4.8 kmh N 3.0 mph4.8 kmh 29.83 in1010.2 mb 0.00 in0.0 mm 0.00 in0.0 mm 0.00 in0.0 mm
06:40 AM 56.1°F13.4°C 43.6°F6.4°C 63% 2.0 mph NNE3.2 kmh NNE 5.0 mph8.0 kmh 29.83 in1010.2 mb 0.00 in0.0 mm 0.00 in0.0 mm 0.00 in0.0 mm
06:45 AM 56.4°F13.6°C 43.5°F6.4°C 62% 4.0 mph NE6.4 kmh NE 5.0 mph8.0 kmh 29.83 in1010.2 mb 0.00 in0.0 mm 0.00 in0.0 mm 0.00 in0.0 mm
06:50 AM 56.7°F13.7°C 44.2°F6.8°C 63% 4.0 mph NE6.4 kmh NE 6.0 mph9.7 kmh 29.83 in1010.2 mb 0.00 in0.0 mm 0.00 in0.0 mm 0.00 in0.0 mm
06:55 AM 56.9°F13.8°C 43.1°F6.2°C 60% 4.0 mph NE6.4 kmh NE 9.0 mph14.5 kmh 29.83 in1010.2 mb 0.00 in0.0 mm 0.00 in0.0 mm 0.00 in0.0 mm
07:00 AM 57.2°F14.0°C 43.4°F6.3°C 60% 3.0 mph E4.8 kmh E 9.0 mph14.5 kmh 29.83 in1010.2 mb 0.00 in0.0 mm 0.00 in0.0 mm 0.00 in0.0 mm
07:05 AM 57.4°F14.1°C 43.6°F6.4°C 60% 5.0 mph NE8.0 kmh NE 10.0 mph16.1 kmh 29.83 in1010.2 mb 0.00 in0.0 mm 0.00 in0.0 mm 0.00 in0.0 mm
07:10 AM 58.0°F14.4°C 44.1°F6.7°C 60% 4.0 mph NE6.4 kmh NE 9.0 mph14.5 kmh 29.83 in1010.2 mb 0.00 in0.0 mm 0.00 in0.0 mm 0.00 in0.0 mm
07:15 AM 58.5°F14.7°C 44.2°F6.8°C 59% 2.0 mph NE3.2 kmh NE 7.0 mph11.3 kmh 29.83 in1010.2 mb 0.00 in0.0 mm 0.00 in0.0 mm 0.00 in0.0 mm
07:20 AM 59.1°F15.1°C 44.3°F6.8°C 58% 2.0 mph E3.2 kmh E 7.0 mph11.3 kmh 29.83 in1010.2 mb 0.00 in0.0 mm 0.00 in0.0 mm 0.00 in0.0 mm
07:25 AM 59.9°F15.5°C 45.0°F7.2°C 58% 3.0 mph ENE4.8 kmh ENE 7.0 mph11.3 kmh 29.82 in1009.8 mb 0.00 in0.0 mm 0.00 in0.0 mm 0.00 in0.0 mm
07:30 AM 60.3°F15.7°C 44.5°F6.9°C 56% 4.0 mph E6.4 kmh E 9.0 mph14.5 kmh 29.83 in1010.2 mb 0.00 in0.0 mm 0.00 in0.0 mm 0.00 in0.0 mm
07:35 AM 60.9°F16.1°C 44.6°F7.0°C 55% 8.0 mph E12.9 kmh E 10.0 mph16.1 kmh 29.82 in1009.8 mb 0.00 in0.0 mm 0.00 in0.0 mm 0.00 in0.0 mm
07:40 AM 61.1°F16.2°C 45.7°F7.6°C 57% 4.0 mph NNE6.4 kmh NNE 10.0 mph16.1 kmh 29.82 in1009.8 mb 0.00 in0.0 mm 0.00 in0.0 mm 0.00 in0.0 mm
07:45 AM 61.0°F16.1°C 44.2°F6.8°C 54% 6.0 mph NE9.7 kmh NE 12.0 mph19.3 kmh 29.82 in1009.8 mb 0.00 in0.0 mm 0.00 in0.0 mm 0.00 in0.0 mm
07:50 AM 60.9°F16.1°C 44.1°F6.7°C 54% 7.0 mph E11.3 kmh E 12.0 mph19.3 kmh 29.82 in1009.8 mb 0.00 in0.0 mm 0.00 in0.0 mm 0.00 in0.0 mm
07:55 AM 61.0°F16.1°C 44.2°F6.8°C 54% 5.0 mph ENE8.0 kmh ENE 11.0 mph17.7 kmh 29.82 in1009.8 mb 0.00 in0.0 mm 0.00 in0.0 mm 0.00 in0.0 mm
08:00 AM 61.3°F16.3°C 44.0°F6.7°C 53% 7.0 mph E11.3 kmh E 12.0 mph19.3 kmh 29.82 in1009.8 mb 0.00 in0.0 mm 0.00 in0.0 mm 0.00 in0.0 mm
08:05 AM 61.4°F16.3°C 44.1°F6.7°C 53% 4.0 mph N6.4 kmh N 12.0 mph19.3 kmh 29.83 in1010.2 mb 0.00 in0.0 mm 0.00 in0.0 mm 0.00 in0.0 mm
08:10 AM 61.5°F16.4°C 44.2°F6.8°C 53% 4.0 mph NE6.4 kmh NE 12.0 mph19.3 kmh 29.83 in1010.2 mb 0.00 in0.0 mm 0.00 in0.0 mm 0.00 in0.0 mm
08:15 AM 62.1°F16.7°C 44.2°F6.8°C 52% 5.0 mph NE8.0 kmh NE 10.0 mph16.1 kmh 29.82 in1009.8 mb 0.00 in0.0 mm 0.00 in0.0 mm 0.00 in0.0 mm
08:20 AM 62.2°F16.8°C 44.3°F6.8°C 52% 5.0 mph E8.0 kmh E 14.0 mph22.5 kmh 29.82 in1009.8 mb 0.00 in0.0 mm 0.00 in0.0 mm 0.00 in0.0 mm
08:25 AM 62.5°F16.9°C 45.1°F7.3°C 53% 7.0 mph 11.3 kmh 10.0 mph16.1 kmh 29.83 in1010.2 mb 0.00 in0.0 mm 0.00 in0.0 mm 0.00 in0.0 mm
08:30 AM 63.0°F17.2°C 44.5°F6.9°C 51% 7.0 mph NE11.3 kmh NE 13.0 mph20.9 kmh 29.83 in1010.2 mb 0.00 in0.0 mm 0.00 in0.0 mm 0.00 in0.0 mm
08:35 AM 63.3°F17.4°C 44.8°F7.1°C 51% 2.0 mph ENE3.2 kmh ENE 11.0 mph17.7 kmh 29.82 in1009.8 mb 0.00 in0.0 mm 0.00 in0.0 mm 0.00 in0.0 mm
08:40 AM 63.4°F17.4°C 45.9°F7.7°C 53% 7.0 mph NE11.3 kmh NE 12.0 mph19.3 kmh 29.82 in1009.8 mb 0.00 in0.0 mm 0.00 in0.0 mm 0.00 in0.0 mm
08:45 AM 63.2°F17.3°C 44.7°F7.1°C 51% 3.0 mph ESE4.8 kmh ESE 12.0 mph19.3 kmh 29.82 in1009.8 mb 0.00 in0.0 mm 0.00 in0.0 mm 0.00 in0.0 mm
08:50 AM 63.3°F17.4°C 45.3°F7.4°C 52% 6.0 mph NE9.7 kmh NE 12.0 mph19.3 kmh 29.82 in1009.8 mb 0.00 in0.0 mm 0.00 in0.0 mm 0.00 in0.0 mm
08:55 AM 63.5°F17.5°C 44.5°F6.9°C 50% 7.0 mph ENE11.3 kmh ENE 15.0 mph24.1 kmh 29.82 in1009.8 mb 0.00 in0.0 mm 0.00 in0.0 mm 0.00 in0.0 mm
09:00 AM 63.8°F17.7°C 44.7°F7.1°C 50% 4.0 mph NE6.4 kmh NE 12.0 mph19.3 kmh 29.82 in1009.8 mb 0.00 in0.0 mm 0.00 in0.0 mm 0.00 in0.0 mm
09:05 AM 64.0°F17.8°C 44.9°F7.2°C 50% 6.0 mph NE9.7 kmh NE 12.0 mph19.3 kmh 29.82 in1009.8 mb 0.00 in0.0 mm 0.00 in0.0 mm 0.00 in0.0 mm
09:10 AM 64.0°F17.8°C 44.4°F6.9°C 49% 9.0 mph E14.5 kmh E 12.0 mph19.3 kmh 29.82 in1009.8 mb 0.00 in0.0 mm 0.00 in0.0 mm 0.00 in0.0 mm
09:15 AM 64.6°F18.1°C 45.0°F7.2°C 49% 5.0 mph ENE8.0 kmh ENE 12.0 mph19.3 kmh 29.82 in1009.8 mb 0.00 in0.0 mm 0.00 in0.0 mm 0.00 in0.0 mm
09:20 AM 65.0°F18.3°C 44.2°F6.8°C 47% 10.0 mph NE16.1 kmh NE 16.0 mph25.7 kmh 29.82 in1009.8 mb 0.00 in0.0 mm 0.00 in0.0 mm 0.00 in0.0 mm
09:25 AM 65.6°F18.7°C 44.8°F7.1°C 47% 5.0 mph E8.0 kmh E 13.0 mph20.9 kmh 29.82 in1009.8 mb 0.00 in0.0 mm 0.00 in0.0 mm 0.00 in0.0 mm
09:30 AM 65.5°F18.6°C 44.7°F7.1°C 47% 5.0 mph ENE8.0 kmh ENE 12.0 mph19.3 kmh 29.82 in1009.8 mb 0.00 in0.0 mm 0.00 in0.0 mm 0.00 in0.0 mm
09:35 AM 66.0°F18.9°C 45.1°F7.3°C 47% 4.0 mph NE6.4 kmh NE 12.0 mph19.3 kmh 29.82 in1009.8 mb 0.00 in0.0 mm 0.00 in0.0 mm 0.00 in0.0 mm
09:40 AM 66.0°F18.9°C 44.0°F6.7°C 45% 3.0 mph NE4.8 kmh NE 12.0 mph19.3 kmh 29.82 in1009.8 mb 0.00 in0.0 mm 0.00 in0.0 mm 0.00 in0.0 mm
09:45 AM 66.7°F19.3°C 44.6°F7.0°C 45% 3.0 mph 4.8 kmh 14.0 mph22.5 kmh 29.81 in1009.5 mb 0.00 in0.0 mm 0.00 in0.0 mm 0.00 in0.0 mm
09:50 AM 67.0°F19.4°C 45.5°F7.5°C 46% 14.0 mph E22.5 kmh E 14.0 mph22.5 kmh 29.81 in1009.5 mb 0.00 in0.0 mm 0.00 in0.0 mm 0.00 in0.0 mm
09:55 AM 67.5°F19.7°C 44.8°F7.1°C 44% 7.0 mph E11.3 kmh E 14.0 mph22.5 kmh 29.81 in1009.5 mb 0.00 in0.0 mm 0.00 in0.0 mm 0.00 in0.0 mm
10:00 AM 68.0°F20.0°C 45.8°F7.7°C 45% 4.0 mph NNE6.4 kmh NNE 15.0 mph24.1 kmh 29.81 in1009.5 mb 0.00 in0.0 mm 0.00 in0.0 mm 0.00 in0.0 mm
10:05 AM 68.1°F20.1°C 45.3°F7.4°C 44% 9.0 mph NE14.5 kmh NE 13.0 mph20.9 kmh 29.82 in1009.8 mb 0.00 in0.0 mm 0.00 in0.0 mm 0.00 in0.0 mm
10:10 AM 67.9°F19.9°C 44.5°F6.9°C 43% 6.0 mph E9.7 kmh E 15.0 mph24.1 kmh 29.81 in1009.5 mb 0.00 in0.0 mm 0.00 in0.0 mm 0.00 in0.0 mm
10:15 AM 68.6°F20.3°C 43.9°F6.6°C 41% 10.0 mph ESE16.1 kmh ESE 14.0 mph22.5 kmh 29.81 in1009.5 mb 0.00 in0.0 mm 0.00 in0.0 mm 0.00 in0.0 mm
10:20 AM 69.2°F20.7°C 43.1°F6.2°C 39% 10.0 mph SE16.1 kmh SE 13.0 mph20.9 kmh 29.80 in1009.1 mb 0.00 in0.0 mm 0.00 in0.0 mm 0.00 in0.0 mm
10:25 AM 69.6°F20.9°C 42.1°F5.6°C 37% 4.0 mph NE6.4 kmh NE 14.0 mph22.5 kmh 29.80 in1009.1 mb 0.00 in0.0 mm 0.00 in0.0 mm 0.00 in0.0 mm
10:30 AM 68.9°F20.5°C 43.5°F6.4°C 40% 9.0 mph E14.5 kmh E 17.0 mph27.4 kmh 29.80 in1009.1 mb 0.00 in0.0 mm 0.00 in0.0 mm 0.00 in0.0 mm
10:35 AM 69.1°F20.6°C 42.4°F5.8°C 38% 6.0 mph E9.7 kmh E 16.0 mph25.7 kmh 29.80 in1009.1 mb 0.00 in0.0 mm 0.00 in0.0 mm 0.00 in0.0 mm
10:40 AM 69.3°F20.7°C 42.5°F5.8°C 38% 5.0 mph E8.0 kmh E 16.0 mph25.7 kmh 29.80 in1009.1 mb 0.00 in0.0 mm 0.00 in0.0 mm 0.00 in0.0 mm
10:45 AM 69.5°F20.8°C 44.1°F6.7°C 40% 4.0 mph NE6.4 kmh NE 12.0 mph19.3 kmh 29.80 in1009.1 mb 0.00 in0.0 mm 0.00 in0.0 mm 0.00 in0.0 mm
10:50 AM 70.1°F21.2°C 43.3°F6.3°C 38% 14.0 mph NE22.5 kmh NE 17.0 mph27.4 kmh 29.80 in1009.1 mb 0.00 in0.0 mm 0.00 in0.0 mm 0.00 in0.0 mm
10:55 AM 69.5°F20.8°C 41.3°F5.2°C 36% 6.0 mph ENE9.7 kmh ENE 15.0 mph24.1 kmh 29.80 in1009.1 mb 0.00 in0.0 mm 0.00 in0.0 mm 0.00 in0.0 mm
11:00 AM 69.5°F20.8°C 41.3°F5.2°C 36% 9.0 mph NE14.5 kmh NE 19.0 mph30.6 kmh 29.79 in1008.8 mb 0.00 in0.0 mm 0.00 in0.0 mm 0.00 in0.0 mm
11:05 AM 69.5°F20.8°C 41.3°F5.2°C 36% 6.0 mph NE9.7 kmh NE 15.0 mph24.1 kmh 29.80 in1009.1 mb 0.00 in0.0 mm 0.00 in0.0 mm 0.00 in0.0 mm
11:10 AM 70.0°F21.1°C 43.2°F6.2°C 38% 8.0 mph NNE12.9 kmh NNE 14.0 mph22.5 kmh 29.79 in1008.8 mb 0.00 in0.0 mm 0.00 in0.0 mm 0.00 in0.0 mm
11:15 AM 70.2°F21.2°C 41.9°F5.5°C 36% 4.0 mph E6.4 kmh E 14.0 mph22.5 kmh 29.79 in1008.8 mb 0.00 in0.0 mm 0.00 in0.0 mm 0.00 in0.0 mm
11:20 AM 70.7°F21.5°C 43.8°F6.6°C 38% 5.0 mph ENE8.0 kmh ENE 14.0 mph22.5 kmh 29.79 in1008.8 mb 0.00 in0.0 mm 0.00 in0.0 mm 0.00 in0.0 mm
11:25 AM 70.8°F21.6°C 42.5°F5.8°C 36% 8.0 mph E12.9 kmh E 17.0 mph27.4 kmh 29.79 in1008.8 mb 0.00 in0.0 mm 0.00 in0.0 mm 0.00 in0.0 mm
11:30 AM 70.9°F21.6°C 41.8°F5.4°C 35% 4.0 mph E6.4 kmh E 15.0 mph24.1 kmh 29.79 in1008.8 mb 0.00 in0.0 mm 0.00 in0.0 mm 0.00 in0.0 mm
11:35 AM 70.9°F21.6°C 43.3°F6.3°C 37% 16.0 mph NE25.7 kmh NE 18.0 mph29.0 kmh 29.78 in1008.5 mb 0.00 in0.0 mm 0.00 in0.0 mm 0.00 in0.0 mm
11:40 AM 71.0°F21.7°C 43.4°F6.3°C 37% 4.0 mph NE6.4 kmh NE 16.0 mph25.7 kmh 29.78 in1008.5 mb 0.00 in0.0 mm 0.00 in0.0 mm 0.00 in0.0 mm
11:45 AM 71.1°F21.7°C 42.0°F5.6°C 35% 11.0 mph ESE17.7 kmh ESE 16.0 mph25.7 kmh 29.78 in1008.5 mb 0.00 in0.0 mm 0.00 in0.0 mm 0.00 in0.0 mm
11:50 AM 71.5°F21.9°C 42.3°F5.7°C 35% 6.0 mph ENE9.7 kmh ENE 13.0 mph20.9 kmh 29.77 in1008.1 mb 0.00 in0.0 mm 0.00 in0.0 mm 0.00 in0.0 mm
11:55 AM 71.0°F21.7°C 42.6°F5.9°C 36% 5.0 mph NE8.0 kmh NE 18.0 mph29.0 kmh 29.78 in1008.5 mb 0.00 in0.0 mm 0.00 in0.0 mm 0.00 in0.0 mm
12:00 PM 71.4°F21.9°C 43.0°F6.1°C 36% 9.0 mph ENE14.5 kmh ENE 14.0 mph22.5 kmh 29.77 in1008.1 mb 0.00 in0.0 mm 0.00 in0.0 mm 0.00 in0.0 mm
12:05 PM 71.7°F22.1°C 42.5°F5.8°C 35% 9.0 mph E14.5 kmh E 15.0 mph24.1 kmh 29.78 in1008.5 mb 0.00 in0.0 mm 0.00 in0.0 mm 0.00 in0.0 mm
12:10 PM 72.0°F22.2°C 42.0°F5.6°C 34% 6.0 mph NE9.7 kmh NE 12.0 mph19.3 kmh 29.78 in1008.5 mb 0.00 in0.0 mm 0.00 in0.0 mm 0.00 in0.0 mm
12:15 PM 71.9°F22.2°C 41.9°F5.5°C 34% 6.0 mph NNE9.7 kmh NNE 15.0 mph24.1 kmh 29.78 in1008.5 mb 0.00 in0.0 mm 0.00 in0.0 mm 0.00 in0.0 mm
12:20 PM 71.5°F21.9°C 42.3°F5.7°C 35% 14.0 mph ENE22.5 kmh ENE 17.0 mph27.4 kmh 29.77 in1008.1 mb 0.00 in0.0 mm 0.00 in0.0 mm 0.00 in0.0 mm
12:25 PM 71.4°F21.9°C 41.5°F5.3°C 34% 12.0 mph NE19.3 kmh NE 19.0 mph30.6 kmh 29.77 in1008.1 mb 0.00 in0.0 mm 0.00 in0.0 mm 0.00 in0.0 mm
12:30 PM 71.6°F22.0°C 43.2°F6.2°C 36% 9.0 mph ESE14.5 kmh ESE 14.0 mph22.5 kmh 29.77 in1008.1 mb 0.00 in0.0 mm 0.00 in0.0 mm 0.00 in0.0 mm
12:35 PM 72.1°F22.3°C 42.1°F5.6°C 34% 4.0 mph N6.4 kmh N 14.0 mph22.5 kmh 29.77 in1008.1 mb 0.00 in0.0 mm 0.00 in0.0 mm 0.00 in0.0 mm
12:40 PM 71.6°F22.0°C 41.7°F5.4°C 34% 6.0 mph NNE9.7 kmh NNE 17.0 mph27.4 kmh 29.77 in1008.1 mb 0.00 in0.0 mm 0.00 in0.0 mm 0.00 in0.0 mm
12:45 PM 72.1°F22.3°C 43.6°F6.4°C 36% 7.0 mph E11.3 kmh E 11.0 mph17.7 kmh 29.76 in1007.8 mb 0.00 in0.0 mm 0.00 in0.0 mm 0.00 in0.0 mm
12:50 PM 73.0°F22.8°C 40.5°F4.7°C 31% 4.0 mph ENE6.4 kmh ENE 12.0 mph19.3 kmh 29.76 in1007.8 mb 0.00 in0.0 mm 0.00 in0.0 mm 0.00 in0.0 mm
12:55 PM 73.2°F22.9°C 41.5°F5.3°C 32% 10.0 mph E16.1 kmh E 12.0 mph19.3 kmh 29.76 in1007.8 mb 0.00 in0.0 mm 0.00 in0.0 mm 0.00 in0.0 mm
01:00 PM 73.3°F22.9°C 42.4°F5.8°C 33% 5.0 mph ESE8.0 kmh ESE 11.0 mph17.7 kmh 29.76 in1007.8 mb 0.00 in0.0 mm 0.00 in0.0 mm 0.00 in0.0 mm
01:05 PM 73.3°F22.9°C 43.2°F6.2°C 34% 7.0 mph E11.3 kmh E 15.0 mph24.1 kmh 29.76 in1007.8 mb 0.00 in0.0 mm 0.00 in0.0 mm 0.00 in0.0 mm
01:10 PM 73.0°F22.8°C 42.1°F5.6°C 33% 3.0 mph N4.8 kmh N 15.0 mph24.1 kmh 29.75 in1007.5 mb 0.00 in0.0 mm 0.00 in0.0 mm 0.00 in0.0 mm
01:15 PM 72.9°F22.7°C 42.0°F5.6°C 33% 7.0 mph E11.3 kmh E 13.0 mph20.9 kmh 29.75 in1007.5 mb 0.00 in0.0 mm 0.00 in0.0 mm 0.00 in0.0 mm
01:20 PM 73.3°F22.9°C 42.4°F5.8°C 33% 9.0 mph NE14.5 kmh NE 13.0 mph20.9 kmh 29.75 in1007.5 mb 0.00 in0.0 mm 0.00 in0.0 mm 0.00 in0.0 mm
01:25 PM 73.3°F22.9°C 43.9°F6.6°C 35% 4.0 mph E6.4 kmh E 18.0 mph29.0 kmh 29.75 in1007.5 mb 0.00 in0.0 mm 0.00 in0.0 mm 0.00 in0.0 mm
01:30 PM 73.9°F23.3°C 40.4°F4.7°C 30% 8.0 mph E12.9 kmh E 14.0 mph22.5 kmh 29.75 in1007.5 mb 0.00 in0.0 mm 0.00 in0.0 mm 0.00 in0.0 mm
01:35 PM 74.2°F23.4°C 39.8°F4.3°C 29% 6.0 mph ENE9.7 kmh ENE 15.0 mph24.1 kmh 29.75 in1007.5 mb 0.00 in0.0 mm 0.00 in0.0 mm 0.00 in0.0 mm
01:40 PM 74.1°F23.4°C 40.6°F4.8°C 30% 10.0 mph SSE16.1 kmh SSE 13.0 mph20.9 kmh 29.75 in1007.5 mb 0.00 in0.0 mm 0.00 in0.0 mm 0.00 in0.0 mm
01:45 PM 74.1°F23.4°C 40.6°F4.8°C 30% 16.0 mph E25.7 kmh E 16.0 mph25.7 kmh 29.75 in1007.5 mb 0.00 in0.0 mm 0.00 in0.0 mm 0.00 in0.0 mm
01:50 PM 74.1°F23.4°C 41.5°F5.3°C 31% 15.0 mph NE24.1 kmh NE 17.0 mph27.4 kmh 29.75 in1007.5 mb 0.00 in0.0 mm 0.00 in0.0 mm 0.00 in0.0 mm
01:55 PM 74.2°F23.4°C 40.7°F4.8°C 30% 5.0 mph ENE8.0 kmh ENE 17.0 mph27.4 kmh 29.74 in1007.1 mb 0.00 in0.0 mm 0.00 in0.0 mm 0.00 in0.0 mm
02:00 PM 73.8°F23.2°C 40.4°F4.7°C 30% 6.0 mph ENE9.7 kmh ENE 16.0 mph25.7 kmh 29.75 in1007.5 mb 0.00 in0.0 mm 0.00 in0.0 mm 0.00 in0.0 mm
02:05 PM 73.8°F23.2°C 42.0°F5.6°C 32% 4.0 mph ENE6.4 kmh ENE 15.0 mph24.1 kmh 29.74 in1007.1 mb 0.00 in0.0 mm 0.00 in0.0 mm 0.00 in0.0 mm
02:10 PM 74.4°F23.6°C 41.7°F5.4°C 31% 7.0 mph E11.3 kmh E 18.0 mph29.0 kmh 29.74 in1007.1 mb 0.00 in0.0 mm 0.00 in0.0 mm 0.00 in0.0 mm
02:15 PM 74.4°F23.6°C 41.7°F5.4°C 31% 6.0 mph E9.7 kmh E 16.0 mph25.7 kmh 29.74 in1007.1 mb 0.00 in0.0 mm 0.00 in0.0 mm 0.00 in0.0 mm
02:20 PM 74.1°F23.4°C 40.6°F4.8°C 30% 5.0 mph NE8.0 kmh NE 15.0 mph24.1 kmh 29.74 in1007.1 mb 0.00 in0.0 mm 0.00 in0.0 mm 0.00 in0.0 mm
02:25 PM 73.6°F23.1°C 41.9°F5.5°C 32% 10.0 mph NE16.1 kmh NE 18.0 mph29.0 kmh 29.74 in1007.1 mb 0.00 in0.0 mm 0.00 in0.0 mm 0.00 in0.0 mm
02:30 PM 74.0°F23.3°C 42.2°F5.7°C 32% 8.0 mph NNE12.9 kmh NNE 18.0 mph29.0 kmh 29.74 in1007.1 mb 0.00 in0.0 mm 0.00 in0.0 mm 0.00 in0.0 mm
02:35 PM 74.2°F23.4°C 41.6°F5.3°C 31% 4.0 mph E6.4 kmh E 14.0 mph22.5 kmh 29.74 in1007.1 mb 0.00 in0.0 mm 0.00 in0.0 mm 0.00 in0.0 mm
02:40 PM 74.2°F23.4°C 41.6°F5.3°C 31% 6.0 mph NE9.7 kmh NE 16.0 mph25.7 kmh 29.73 in1006.8 mb 0.00 in0.0 mm 0.00 in0.0 mm 0.00 in0.0 mm
02:45 PM 74.0°F23.3°C 41.4°F5.2°C 31% 14.0 mph ENE22.5 kmh ENE 17.0 mph27.4 kmh 29.73 in1006.8 mb 0.00 in0.0 mm 0.00 in0.0 mm 0.00 in0.0 mm
02:50 PM 74.9°F23.8°C 42.2°F5.7°C 31% 6.0 mph NE9.7 kmh NE 15.0 mph24.1 kmh 29.73 in1006.8 mb 0.00 in0.0 mm 0.00 in0.0 mm 0.00 in0.0 mm
02:55 PM 74.9°F23.8°C 40.4°F4.7°C 29% 7.0 mph NE11.3 kmh NE 14.0 mph22.5 kmh 29.73 in1006.8 mb 0.00 in0.0 mm 0.00 in0.0 mm 0.00 in0.0 mm
03:00 PM 74.3°F23.5°C 39.9°F4.4°C 29% 6.0 mph E9.7 kmh E 15.0 mph24.1 kmh 29.73 in1006.8 mb 0.00 in0.0 mm 0.00 in0.0 mm 0.00 in0.0 mm
03:05 PM 74.0°F23.3°C 42.2°F5.7°C 32% 10.0 mph NE16.1 kmh NE 13.0 mph20.9 kmh 29.73 in1006.8 mb 0.00 in0.0 mm 0.00 in0.0 mm 0.00 in0.0 mm
03:10 PM 73.7°F23.2°C 43.5°F6.4°C 34% 12.0 mph NE19.3 kmh NE 15.0 mph24.1 kmh 29.73 in1006.8 mb 0.00 in0.0 mm 0.00 in0.0 mm 0.00 in0.0 mm
03:15 PM 73.6°F23.1°C 43.4°F6.3°C 34% 12.0 mph E19.3 kmh E 16.0 mph25.7 kmh 29.72 in1006.4 mb 0.00 in0.0 mm 0.00 in0.0 mm 0.00 in0.0 mm
03:20 PM 74.1°F23.4°C 43.1°F6.2°C 33% 7.0 mph NNE11.3 kmh NNE 16.0 mph25.7 kmh 29.72 in1006.4 mb 0.00 in0.0 mm 0.00 in0.0 mm 0.00 in0.0 mm
03:25 PM 74.0°F23.3°C 43.0°F6.1°C 33% 6.0 mph NE9.7 kmh NE 15.0 mph24.1 kmh 29.72 in1006.4 mb 0.00 in0.0 mm 0.00 in0.0 mm 0.00 in0.0 mm
03:30 PM 74.5°F23.6°C 43.4°F6.3°C 33% 9.0 mph E14.5 kmh E 12.0 mph19.3 kmh 29.72 in1006.4 mb 0.00 in0.0 mm 0.00 in0.0 mm 0.00 in0.0 mm
03:35 PM 74.4°F23.6°C 41.7°F5.4°C 31% 11.0 mph E17.7 kmh E 13.0 mph20.9 kmh 29.72 in1006.4 mb 0.00 in0.0 mm 0.00 in0.0 mm 0.00 in0.0 mm
03:40 PM 74.3°F23.5°C 43.3°F6.3°C 33% 9.0 mph E14.5 kmh E 20.0 mph32.2 kmh 29.72 in1006.4 mb 0.00 in0.0 mm 0.00 in0.0 mm 0.00 in0.0 mm
03:45 PM 74.3°F23.5°C 43.3°F6.3°C 33% 3.0 mph N4.8 kmh N 12.0 mph19.3 kmh 29.72 in1006.4 mb 0.00 in0.0 mm 0.00 in0.0 mm 0.00 in0.0 mm
03:50 PM 74.3°F23.5°C 44.0°F6.7°C 34% 9.0 mph ESE14.5 kmh ESE 17.0 mph27.4 kmh 29.72 in1006.4 mb 0.00 in0.0 mm 0.00 in0.0 mm 0.00 in0.0 mm
03:55 PM 73.9°F23.3°C 42.9°F6.1°C 33% 7.0 mph NE11.3 kmh NE 16.0 mph25.7 kmh 29.72 in1006.4 mb 0.00 in0.0 mm 0.00 in0.0 mm 0.00 in0.0 mm
04:00 PM 74.4°F23.6°C 42.6°F5.9°C 32% 14.0 mph ENE22.5 kmh ENE 17.0 mph27.4 kmh 29.71 in1006.1 mb 0.00 in0.0 mm 0.00 in0.0 mm 0.00 in0.0 mm
04:05 PM 74.1°F23.4°C 42.3°F5.7°C 32% 3.0 mph ESE4.8 kmh ESE 18.0 mph29.0 kmh 29.72 in1006.4 mb 0.00 in0.0 mm 0.00 in0.0 mm 0.00 in0.0 mm
04:10 PM 74.1°F23.4°C 45.4°F7.4°C 36% 2.0 mph ENE3.2 kmh ENE 14.0 mph22.5 kmh 29.71 in1006.1 mb 0.00 in0.0 mm 0.00 in0.0 mm 0.00 in0.0 mm
04:15 PM 73.8°F23.2°C 43.6°F6.4°C 34% 5.0 mph SE8.0 kmh SE 15.0 mph24.1 kmh 29.71 in1006.1 mb 0.00 in0.0 mm 0.00 in0.0 mm 0.00 in0.0 mm
04:20 PM 73.9°F23.3°C 43.7°F6.5°C 34% 5.0 mph ENE8.0 kmh ENE 15.0 mph24.1 kmh 29.71 in1006.1 mb 0.00 in0.0 mm 0.00 in0.0 mm 0.00 in0.0 mm
04:25 PM 74.0°F23.3°C 43.8°F6.6°C 34% 4.0 mph E6.4 kmh E 15.0 mph24.1 kmh 29.71 in1006.1 mb 0.00 in0.0 mm 0.00 in0.0 mm 0.00 in0.0 mm
04:30 PM 74.0°F23.3°C 45.3°F7.4°C 36% 13.0 mph NE20.9 kmh NE 15.0 mph24.1 kmh 29.71 in1006.1 mb 0.00 in0.0 mm 0.00 in0.0 mm 0.00 in0.0 mm
04:35 PM 73.5°F23.1°C 44.8°F7.1°C 36% 14.0 mph ENE22.5 kmh ENE 17.0 mph27.4 kmh 29.71 in1006.1 mb 0.00 in0.0 mm 0.00 in0.0 mm 0.00 in0.0 mm
04:40 PM 73.7°F23.2°C 45.0°F7.2°C 36% 5.0 mph ENE8.0 kmh ENE 12.0 mph19.3 kmh 29.70 in1005.8 mb 0.00 in0.0 mm 0.00 in0.0 mm 0.00 in0.0 mm
04:45 PM 73.4°F23.0°C 44.8°F7.1°C 36% 10.0 mph ENE16.1 kmh ENE 14.0 mph22.5 kmh 29.70 in1005.8 mb 0.00 in0.0 mm 0.00 in0.0 mm 0.00 in0.0 mm
04:50 PM 73.4°F23.0°C 45.5°F7.5°C 37% 4.0 mph E6.4 kmh E 15.0 mph24.1 kmh 29.70 in1005.8 mb 0.00 in0.0 mm 0.00 in0.0 mm 0.00 in0.0 mm
04:55 PM 73.6°F23.1°C 46.4°F8.0°C 38% 4.0 mph E6.4 kmh E 15.0 mph24.1 kmh 29.70 in1005.8 mb 0.00 in0.0 mm 0.00 in0.0 mm 0.00 in0.0 mm
05:00 PM 73.8°F23.2°C 45.8°F7.7°C 37% 3.0 mph E4.8 kmh E 13.0 mph20.9 kmh 29.70 in1005.8 mb 0.00 in0.0 mm 0.00 in0.0 mm 0.00 in0.0 mm
05:05 PM 73.8°F23.2°C 45.8°F7.7°C 37% 12.0 mph NE19.3 kmh NE 15.0 mph24.1 kmh 29.70 in1005.8 mb 0.00 in0.0 mm 0.00 in0.0 mm 0.00 in0.0 mm
05:10 PM 73.5°F23.1°C 44.1°F6.7°C 35% 5.0 mph ENE8.0 kmh ENE 15.0 mph24.1 kmh 29.70 in1005.8 mb 0.00 in0.0 mm 0.00 in0.0 mm 0.00 in0.0 mm
05:15 PM 73.6°F23.1°C 44.9°F7.2°C 36% 11.0 mph ENE17.7 kmh ENE 12.0 mph19.3 kmh 29.70 in1005.8 mb 0.00 in0.0 mm 0.00 in0.0 mm 0.00 in0.0 mm
05:20 PM 73.4°F23.0°C 44.8°F7.1°C 36% 6.0 mph E9.7 kmh E 16.0 mph25.7 kmh 29.70 in1005.8 mb 0.00 in0.0 mm 0.00 in0.0 mm 0.00 in0.0 mm
05:25 PM 73.1°F22.8°C 45.9°F7.7°C 38% 4.0 mph E6.4 kmh E 13.0 mph20.9 kmh 29.70 in1005.8 mb 0.00 in0.0 mm 0.00 in0.0 mm 0.00 in0.0 mm
05:30 PM 73.2°F22.9°C 46.0°F7.8°C 38% 6.0 mph E9.7 kmh E 10.0 mph16.1 kmh 29.70 in1005.8 mb 0.00 in0.0 mm 0.00 in0.0 mm 0.00 in0.0 mm
05:35 PM 73.3°F22.9°C 46.8°F8.2°C 39% 6.0 mph NE9.7 kmh NE 12.0 mph19.3 kmh 29.70 in1005.8 mb 0.00 in0.0 mm 0.00 in0.0 mm 0.00 in0.0 mm
05:40 PM 73.2°F22.9°C 44.6°F7.0°C 36% 5.0 mph NE8.0 kmh NE 14.0 mph22.5 kmh 29.70 in1005.8 mb 0.00 in0.0 mm 0.00 in0.0 mm 0.00 in0.0 mm
05:45 PM 73.0°F22.8°C 45.8°F7.7°C 38% 1.0 mph E1.6 kmh E 10.0 mph16.1 kmh 29.70 in1005.8 mb 0.00 in0.0 mm 0.00 in0.0 mm 0.00 in0.0 mm
05:50 PM 72.8°F22.7°C 46.3°F7.9°C 39% 11.0 mph ENE17.7 kmh ENE 13.0 mph20.9 kmh 29.70 in1005.8 mb 0.00 in0.0 mm 0.00 in0.0 mm 0.00 in0.0 mm
05:55 PM 72.4°F22.4°C 46.7°F8.2°C 40% 5.0 mph ENE8.0 kmh ENE 12.0 mph19.3 kmh 29.70 in1005.8 mb 0.00 in0.0 mm 0.00 in0.0 mm 0.00 in0.0 mm
06:00 PM 72.2°F22.3°C 47.1°F8.4°C 41% 4.0 mph NE6.4 kmh NE 10.0 mph16.1 kmh 29.70 in1005.8 mb 0.00 in0.0 mm 0.00 in0.0 mm 0.00 in0.0 mm
06:05 PM 71.8°F22.1°C 47.4°F8.6°C 42% 12.0 mph E19.3 kmh E 16.0 mph25.7 kmh 29.69 in1005.4 mb 0.00 in0.0 mm 0.00 in0.0 mm 0.00 in0.0 mm
06:10 PM 71.2°F21.8°C 47.5°F8.6°C 43% 7.0 mph ENE11.3 kmh ENE 16.0 mph25.7 kmh 29.69 in1005.4 mb 0.00 in0.0 mm 0.00 in0.0 mm 0.00 in0.0 mm
06:15 PM 70.9°F21.6°C 47.8°F8.8°C 44% 4.0 mph E6.4 kmh E 16.0 mph25.7 kmh 29.69 in1005.4 mb 0.00 in0.0 mm 0.00 in0.0 mm 0.00 in0.0 mm
06:20 PM 71.0°F21.7°C 47.9°F8.8°C 44% 10.0 mph ENE16.1 kmh ENE 16.0 mph25.7 kmh 29.69 in1005.4 mb 0.00 in0.0 mm 0.00 in0.0 mm 0.00 in0.0 mm
06:25 PM 71.0°F21.7°C 47.3°F8.5°C 43% 6.0 mph E9.7 kmh E 13.0 mph20.9 kmh 29.69 in1005.4 mb 0.00 in0.0 mm 0.00 in0.0 mm 0.00 in0.0 mm
06:30 PM 71.0°F21.7°C 47.9°F8.8°C 44% 7.0 mph ESE11.3 kmh ESE 17.0 mph27.4 kmh 29.69 in1005.4 mb 0.00 in0.0 mm 0.00 in0.0 mm 0.00 in0.0 mm
06:35 PM 70.9°F21.6°C 47.8°F8.8°C 44% 7.0 mph NE11.3 kmh NE 13.0 mph20.9 kmh 29.69 in1005.4 mb 0.00 in0.0 mm 0.00 in0.0 mm 0.00 in0.0 mm
06:40 PM 70.9°F21.6°C 47.8°F8.8°C 44% 10.0 mph ENE16.1 kmh ENE 15.0 mph24.1 kmh 29.69 in1005.4 mb 0.00 in0.0 mm 0.00 in0.0 mm 0.00 in0.0 mm
06:45 PM 70.8°F21.6°C 47.7°F8.7°C 44% 5.0 mph NE8.0 kmh NE 11.0 mph17.7 kmh 29.70 in1005.8 mb 0.00 in0.0 mm 0.00 in0.0 mm 0.00 in0.0 mm
06:50 PM 70.5°F21.4°C 48.7°F9.3°C 46% 8.0 mph E12.9 kmh E 13.0 mph20.9 kmh 29.70 in1005.8 mb 0.00 in0.0 mm 0.00 in0.0 mm 0.00 in0.0 mm
06:55 PM 70.2°F21.2°C 49.0°F9.4°C 47% 6.0 mph SE9.7 kmh SE 12.0 mph19.3 kmh 29.70 in1005.8 mb 0.00 in0.0 mm 0.00 in0.0 mm 0.00 in0.0 mm
07:00 PM 69.5°F20.8°C 48.9°F9.4°C 48% 16.0 mph ESE25.7 kmh ESE 15.0 mph24.1 kmh 29.70 in1005.8 mb 0.00 in0.0 mm 0.00 in0.0 mm 0.00 in0.0 mm
07:05 PM 69.1°F20.6°C 49.1°F9.5°C 49% 4.0 mph E6.4 kmh E 16.0 mph25.7 kmh 29.69 in1005.4 mb 0.00 in0.0 mm 0.00 in0.0 mm 0.00 in0.0 mm
07:10 PM 68.7°F20.4°C 49.2°F9.6°C 50% 4.0 mph ENE6.4 kmh ENE 12.0 mph19.3 kmh 29.69 in1005.4 mb 0.00 in0.0 mm 0.00 in0.0 mm 0.00 in0.0 mm
07:15 PM 68.3°F20.2°C 48.9°F9.4°C 50% 4.0 mph ESE6.4 kmh ESE 15.0 mph24.1 kmh 29.70 in1005.8 mb 0.00 in0.0 mm 0.00 in0.0 mm 0.00 in0.0 mm
07:20 PM 67.9°F19.9°C 48.5°F9.2°C 50% 5.0 mph E8.0 kmh E 11.0 mph17.7 kmh 29.70 in1005.8 mb 0.00 in0.0 mm 0.00 in0.0 mm 0.00 in0.0 mm
07:25 PM 67.5°F19.7°C 48.1°F8.9°C 50% 5.0 mph ESE8.0 kmh ESE 13.0 mph20.9 kmh 29.70 in1005.8 mb 0.00 in0.0 mm 0.00 in0.0 mm 0.00 in0.0 mm
07:30 PM 67.2°F19.6°C 47.9°F8.8°C 50% 4.0 mph E6.4 kmh E 11.0 mph17.7 kmh 29.70 in1005.8 mb 0.00 in0.0 mm 0.00 in0.0 mm 0.00 in0.0 mm
07:35 PM 66.8°F19.3°C 48.0°F8.9°C 51% 4.0 mph ESE6.4 kmh ESE 12.0 mph19.3 kmh 29.70 in1005.8 mb 0.00 in0.0 mm 0.00 in0.0 mm 0.00 in0.0 mm
07:40 PM 66.5°F19.2°C 48.3°F9.1°C 52% 5.0 mph E8.0 kmh E 11.0 mph17.7 kmh 29.70 in1005.8 mb 0.00 in0.0 mm 0.00 in0.0 mm 0.00 in0.0 mm
07:45 PM 66.2°F19.0°C 48.0°F8.9°C 52% 4.0 mph E6.4 kmh E 13.0 mph20.9 kmh 29.71 in1006.1 mb 0.00 in0.0 mm 0.00 in0.0 mm 0.00 in0.0 mm
07:50 PM 66.0°F18.9°C 47.8°F8.8°C 52% 6.0 mph NE9.7 kmh NE 13.0 mph20.9 kmh 29.71 in1006.1 mb 0.00 in0.0 mm 0.00 in0.0 mm 0.00 in0.0 mm
07:55 PM 65.6°F18.7°C 47.4°F8.6°C 52% 6.0 mph NE9.7 kmh NE 10.0 mph16.1 kmh 29.71 in1006.1 mb 0.00 in0.0 mm 0.00 in0.0 mm 0.00 in0.0 mm
08:00 PM 65.3°F18.5°C 47.7°F8.7°C 53% 2.0 mph E3.2 kmh E 8.0 mph12.9 kmh 29.71 in1006.1 mb 0.00 in0.0 mm 0.00 in0.0 mm 0.00 in0.0 mm
08:05 PM 65.0°F18.3°C 47.4°F8.6°C 53% 4.0 mph ENE6.4 kmh ENE 8.0 mph12.9 kmh 29.71 in1006.1 mb 0.00 in0.0 mm 0.00 in0.0 mm 0.00 in0.0 mm
08:10 PM 64.7°F18.2°C 47.6°F8.7°C 54% 3.0 mph NE4.8 kmh NE 6.0 mph9.7 kmh 29.71 in1006.1 mb 0.00 in0.0 mm 0.00 in0.0 mm 0.00 in0.0 mm
08:15 PM 64.5°F18.1°C 47.4°F8.6°C 54% 3.0 mph E4.8 kmh E 5.0 mph8.0 kmh 29.71 in1006.1 mb 0.00 in0.0 mm 0.00 in0.0 mm 0.00 in0.0 mm
08:20 PM 64.2°F17.9°C 47.2°F8.4°C 54% 4.0 mph ENE6.4 kmh ENE 5.0 mph8.0 kmh 29.71 in1006.1 mb 0.00 in0.0 mm 0.00 in0.0 mm 0.00 in0.0 mm
08:25 PM 64.0°F17.8°C 47.0°F8.3°C 54% 2.0 mph E3.2 kmh E 5.0 mph8.0 kmh 29.71 in1006.1 mb 0.00 in0.0 mm 0.00 in0.0 mm 0.00 in0.0 mm
08:30 PM 63.9°F17.7°C 47.4°F8.6°C 55% 2.0 mph E3.2 kmh E 5.0 mph8.0 kmh 29.72 in1006.4 mb 0.00 in0.0 mm 0.00 in0.0 mm 0.00 in0.0 mm
08:35 PM 63.6°F17.6°C 47.1°F8.4°C 55% 4.0 mph E6.4 kmh E 6.0 mph9.7 kmh 29.72 in1006.4 mb 0.00 in0.0 mm 0.00 in0.0 mm 0.00 in0.0 mm
08:40 PM 63.4°F17.4°C 46.9°F8.3°C 55% 4.0 mph E6.4 kmh E 5.0 mph8.0 kmh 29.72 in1006.4 mb 0.00 in0.0 mm 0.00 in0.0 mm 0.00 in0.0 mm
08:45 PM 63.1°F17.3°C 47.1°F8.4°C 56% 3.0 mph E4.8 kmh E 4.0 mph6.4 kmh 29.72 in1006.4 mb 0.00 in0.0 mm 0.00 in0.0 mm 0.00 in0.0 mm
08:50 PM 62.9°F17.2°C 47.4°F8.6°C 57% 2.0 mph E3.2 kmh E 4.0 mph6.4 kmh 29.72 in1006.4 mb 0.00 in0.0 mm 0.00 in0.0 mm 0.00 in0.0 mm
08:55 PM 62.7°F17.1°C 47.2°F8.4°C 57% 2.0 mph ENE3.2 kmh ENE 4.0 mph6.4 kmh 29.72 in1006.4 mb 0.00 in0.0 mm 0.00 in0.0 mm 0.00 in0.0 mm
09:00 PM 62.4°F16.9°C 46.9°F8.3°C 57% 2.0 mph E3.2 kmh E 5.0 mph8.0 kmh 29.71 in1006.1 mb 0.00 in0.0 mm 0.00 in0.0 mm 0.00 in0.0 mm
09:05 PM 62.2°F16.8°C 47.2°F8.4°C 58% 2.0 mph E3.2 kmh E 5.0 mph8.0 kmh 29.71 in1006.1 mb 0.00 in0.0 mm 0.00 in0.0 mm 0.00 in0.0 mm
09:10 PM 62.0°F16.7°C 47.0°F8.3°C 58% 2.0 mph E3.2 kmh E 5.0 mph8.0 kmh 29.71 in1006.1 mb 0.00 in0.0 mm 0.00 in0.0 mm 0.00 in0.0 mm
09:15 PM 61.8°F16.6°C 47.3°F8.5°C 59% 1.0 mph ENE1.6 kmh ENE 5.0 mph8.0 kmh 29.71 in1006.1 mb 0.00 in0.0 mm 0.00 in0.0 mm 0.00 in0.0 mm
09:20 PM 61.8°F16.6°C 46.8°F8.2°C 58% 2.0 mph E3.2 kmh E 3.0 mph4.8 kmh 29.70 in1005.8 mb 0.00 in0.0 mm 0.00 in0.0 mm 0.00 in0.0 mm
09:25 PM 61.6°F16.4°C 47.1°F8.4°C 59% 1.0 mph E1.6 kmh E 3.0 mph4.8 kmh 29.70 in1005.8 mb 0.00 in0.0 mm 0.00 in0.0 mm 0.00 in0.0 mm
09:30 PM 61.5°F16.4°C 47.0°F8.3°C 59% 1.0 mph E1.6 kmh E 2.0 mph3.2 kmh 29.70 in1005.8 mb 0.00 in0.0 mm 0.00 in0.0 mm 0.00 in0.0 mm
09:35 PM 61.4°F16.3°C 47.3°F8.5°C 60% 1.0 mph E1.6 kmh E 2.0 mph3.2 kmh 29.71 in1006.1 mb 0.00 in0.0 mm 0.00 in0.0 mm 0.00 in0.0 mm
09:40 PM 61.2°F16.2°C 47.1°F8.4°C 60% 2.0 mph E3.2 kmh E 2.0 mph3.2 kmh 29.70 in1005.8 mb 0.00 in0.0 mm 0.00 in0.0 mm 0.00 in0.0 mm
09:45 PM 60.8°F16.0°C 47.2°F8.4°C 61% 1.0 mph ENE1.6 kmh ENE 3.0 mph4.8 kmh 29.70 in1005.8 mb 0.00 in0.0 mm 0.00 in0.0 mm 0.00 in0.0 mm
09:50 PM 60.5°F15.8°C 46.9°F8.3°C 61% 2.0 mph ENE3.2 kmh ENE 2.0 mph3.2 kmh 29.70 in1005.8 mb 0.00 in0.0 mm 0.00 in0.0 mm 0.00 in0.0 mm
09:55 PM 60.2°F15.7°C 47.1°F8.4°C 62% 1.0 mph ENE1.6 kmh ENE 2.0 mph3.2 kmh 29.70 in1005.8 mb 0.00 in0.0 mm 0.00 in0.0 mm 0.00 in0.0 mm
10:00 PM 59.8°F15.4°C 46.7°F8.2°C 62% 2.0 mph NE3.2 kmh NE 4.0 mph6.4 kmh 29.70 in1005.8 mb 0.00 in0.0 mm 0.00 in0.0 mm 0.00 in0.0 mm
10:05 PM 59.4°F15.2°C 46.7°F8.2°C 63% 4.0 mph NE6.4 kmh NE 4.0 mph6.4 kmh 29.70 in1005.8 mb 0.00 in0.0 mm 0.00 in0.0 mm 0.00 in0.0 mm
10:10 PM 59.0°F15.0°C 46.4°F8.0°C 63% 3.0 mph NE4.8 kmh NE 5.0 mph8.0 kmh 29.70 in1005.8 mb 0.00 in0.0 mm 0.00 in0.0 mm 0.00 in0.0 mm
10:15 PM 58.9°F14.9°C 46.7°F8.2°C 64% 1.0 mph NE1.6 kmh NE 3.0 mph4.8 kmh 29.70 in1005.8 mb 0.00 in0.0 mm 0.00 in0.0 mm 0.00 in0.0 mm
10:20 PM 58.7°F14.8°C 46.5°F8.1°C 64% 2.0 mph ENE3.2 kmh ENE 4.0 mph6.4 kmh 29.70 in1005.8 mb 0.00 in0.0 mm 0.00 in0.0 mm 0.00 in0.0 mm
10:25 PM 58.6°F14.8°C 46.8°F8.2°C 65% 5.0 mph NE8.0 kmh NE 5.0 mph8.0 kmh 29.70 in1005.8 mb 0.00 in0.0 mm 0.00 in0.0 mm 0.00 in0.0 mm
10:30 PM 58.8°F14.9°C 46.6°F8.1°C 64% 4.0 mph NE6.4 kmh NE 9.0 mph14.5 kmh 29.70 in1005.8 mb 0.00 in0.0 mm 0.00 in0.0 mm 0.00 in0.0 mm
10:35 PM 59.3°F15.2°C 46.2°F7.9°C 62% 6.0 mph NE9.7 kmh NE 9.0 mph14.5 kmh 29.69 in1005.4 mb 0.00 in0.0 mm 0.00 in0.0 mm 0.00 in0.0 mm
10:40 PM 59.5°F15.3°C 46.4°F8.0°C 62% 6.0 mph ENE9.7 kmh ENE 11.0 mph17.7 kmh 29.69 in1005.4 mb 0.00 in0.0 mm 0.00 in0.0 mm 0.00 in0.0 mm
10:45 PM 59.5°F15.3°C 46.0°F7.8°C 61% 3.0 mph NE4.8 kmh NE 10.0 mph16.1 kmh 29.68 in1005.1 mb 0.00 in0.0 mm 0.00 in0.0 mm 0.00 in0.0 mm
10:50 PM 59.5°F15.3°C 46.0°F7.8°C 61% 5.0 mph ENE8.0 kmh ENE 12.0 mph19.3 kmh 29.69 in1005.4 mb 0.00 in0.0 mm 0.00 in0.0 mm 0.00 in0.0 mm
10:55 PM 59.5°F15.3°C 45.6°F7.6°C 60% 7.0 mph NE11.3 kmh NE 10.0 mph16.1 kmh 29.69 in1005.4 mb 0.00 in0.0 mm 0.00 in0.0 mm 0.00 in0.0 mm
11:00 PM 59.5°F15.3°C 45.6°F7.6°C 60% 5.0 mph ESE8.0 kmh ESE 9.0 mph14.5 kmh 29.69 in1005.4 mb 0.00 in0.0 mm 0.00 in0.0 mm 0.00 in0.0 mm
11:05 PM 59.4°F15.2°C 45.5°F7.5°C 60% 7.0 mph NE11.3 kmh NE 9.0 mph14.5 kmh 29.69 in1005.4 mb 0.00 in0.0 mm 0.00 in0.0 mm 0.00 in0.0 mm
11:10 PM 59.3°F15.2°C 45.4°F7.4°C 60% 4.0 mph E6.4 kmh E 9.0 mph14.5 kmh 29.69 in1005.4 mb 0.00 in0.0 mm 0.00 in0.0 mm 0.00 in0.0 mm
11:15 PM 59.1°F15.1°C 45.2°F7.3°C 60% 3.0 mph ENE4.8 kmh ENE 7.0 mph11.3 kmh 29.69 in1005.4 mb 0.00 in0.0 mm 0.00 in0.0 mm 0.00 in0.0 mm
11:20 PM 59.0°F15.0°C 45.5°F7.5°C 61% 2.0 mph E3.2 kmh E 6.0 mph9.7 kmh 29.69 in1005.4 mb 0.00 in0.0 mm 0.00 in0.0 mm 0.00 in0.0 mm
11:25 PM 58.7°F14.8°C 45.2°F7.3°C 61% 4.0 mph E6.4 kmh E 7.0 mph11.3 kmh 29.69 in1005.4 mb 0.00 in0.0 mm 0.00 in0.0 mm 0.00 in0.0 mm
11:30 PM 58.7°F14.8°C 45.7°F7.6°C 62% 2.0 mph ESE3.2 kmh ESE 7.0 mph11.3 kmh 29.69 in1005.4 mb 0.00 in0.0 mm 0.00 in0.0 mm 0.00 in0.0 mm
11:35 PM 58.7°F14.8°C 45.7°F7.6°C 62% 3.0 mph E4.8 kmh E 7.0 mph11.3 kmh 29.69 in1005.4 mb 0.00 in0.0 mm 0.00 in0.0 mm 0.00 in0.0 mm
11:40 PM 58.5°F14.7°C 45.5°F7.5°C 62% 4.0 mph E6.4 kmh E 6.0 mph9.7 kmh 29.69 in1005.4 mb 0.00 in0.0 mm 0.00 in0.0 mm 0.00 in0.0 mm
11:45 PM 58.4°F14.7°C 45.4°F7.4°C 62% 3.0 mph ENE4.8 kmh ENE 6.0 mph9.7 kmh 29.69 in1005.4 mb 0.00 in0.0 mm 0.00 in0.0 mm 0.00 in0.0 mm
11:50 PM 58.1°F14.5°C 45.5°F7.5°C 63% 2.0 mph ENE3.2 kmh ENE 5.0 mph8.0 kmh 29.69 in1005.4 mb 0.00 in0.0 mm 0.00 in0.0 mm 0.00 in0.0 mm
11:55 PM 57.7°F14.3°C 45.6°F7.6°C 64% 1.0 mph NE1.6 kmh NE 4.0 mph6.4 kmh 29.69 in1005.4 mb 0.00 in0.0 mm 0.00 in0.0 mm 0.00 in0.0 mm